sensor_id;sensor_type;location;lat;lon;timestamp;temperature;humidity
41457;DHT22;27197;51.752;5.220;2022-09-14T00:00:43;24.00;63.00
41457;DHT22;27197;51.752;5.220;2022-09-14T00:03:16;24.00;63.20
41457;DHT22;27197;51.752;5.220;2022-09-14T00:05:46;24.00;63.00
41457;DHT22;27197;51.752;5.220;2022-09-14T00:08:16;23.90;62.40
41457;DHT22;27197;51.752;5.220;2022-09-14T00:10:48;23.80;62.10
41457;DHT22;27197;51.752;5.220;2022-09-14T00:13:18;23.80;61.70
41457;DHT22;27197;51.752;5.220;2022-09-14T00:15:48;23.80;61.70
41457;DHT22;27197;51.752;5.220;2022-09-14T00:18:18;23.70;61.50
41457;DHT22;27197;51.752;5.220;2022-09-14T00:20:52;23.70;61.30
41457;DHT22;27197;51.752;5.220;2022-09-14T00:23:21;23.70;61.30
41457;DHT22;27197;51.752;5.220;2022-09-14T00:25:51;23.60;61.10
41457;DHT22;27197;51.752;5.220;2022-09-14T00:28:21;23.60;61.00
41457;DHT22;27197;51.752;5.220;2022-09-14T00:30:52;23.60;61.00
41457;DHT22;27197;51.752;5.220;2022-09-14T00:33:22;23.60;60.80
41457;DHT22;27197;51.752;5.220;2022-09-14T00:35:52;23.60;60.70
41457;DHT22;27197;51.752;5.220;2022-09-14T00:38:24;23.60;60.60
41457;DHT22;27197;51.752;5.220;2022-09-14T00:40:59;23.60;60.40
41457;DHT22;27197;51.752;5.220;2022-09-14T00:43:31;23.50;60.20
41457;DHT22;27197;51.752;5.220;2022-09-14T00:46:01;23.50;60.40
41457;DHT22;27197;51.752;5.220;2022-09-14T00:48:31;23.60;61.00
41457;DHT22;27197;51.752;5.220;2022-09-14T00:51:02;23.60;61.30
41457;DHT22;27197;51.752;5.220;2022-09-14T00:53:34;23.70;61.50
41457;DHT22;27197;51.752;5.220;2022-09-14T00:56:04;23.70;61.70
41457;DHT22;27197;51.752;5.220;2022-09-14T00:58:40;23.70;61.90
41457;DHT22;27197;51.752;5.220;2022-09-14T01:01:08;23.70;61.90
41457;DHT22;27197;51.752;5.220;2022-09-14T01:03:39;23.70;62.00
41457;DHT22;27197;51.752;5.220;2022-09-14T01:06:31;23.70;62.10
41457;DHT22;27197;51.752;5.220;2022-09-14T01:09:10;23.70;62.10
41457;DHT22;27197;51.752;5.220;2022-09-14T01:11:49;23.80;62.30
41457;DHT22;27197;51.752;5.220;2022-09-14T01:25:57;23.80;62.60
41457;DHT22;27197;51.752;5.220;2022-09-14T01:28:29;23.80;62.60
41457;DHT22;27197;51.752;5.220;2022-09-14T01:30:59;23.80;62.60
41457;DHT22;27197;51.752;5.220;2022-09-14T01:33:36;23.80;62.60
41457;DHT22;27197;51.752;5.220;2022-09-14T01:36:06;23.80;62.60
41457;DHT22;27197;51.752;5.220;2022-09-14T01:38:49;23.80;62.70
41457;DHT22;27197;51.752;5.220;2022-09-14T01:41:21;23.80;62.70
41457;DHT22;27197;51.752;5.220;2022-09-14T01:43:59;23.80;62.90
41457;DHT22;27197;51.752;5.220;2022-09-14T01:46:32;23.80;62.80
41457;DHT22;27197;51.752;5.220;2022-09-14T01:49:33;23.80;62.90
41457;DHT22;27197;51.752;5.220;2022-09-14T01:52:10;23.80;62.80
41457;DHT22;27197;51.752;5.220;2022-09-14T01:54:39;23.80;62.60
41457;DHT22;27197;51.752;5.220;2022-09-14T01:57:18;23.70;61.90
41457;DHT22;27197;51.752;5.220;2022-09-14T01:59:51;23.70;61.50
41457;DHT22;27197;51.752;5.220;2022-09-14T02:02:32;23.60;61.40
41457;DHT22;27197;51.752;5.220;2022-09-14T02:05:06;23.60;61.20
41457;DHT22;27197;51.752;5.220;2022-09-14T02:07:40;23.50;61.10
41457;DHT22;27197;51.752;5.220;2022-09-14T02:10:12;23.50;61.20
41457;DHT22;27197;51.752;5.220;2022-09-14T02:12:41;23.50;61.50
41457;DHT22;27197;51.752;5.220;2022-09-14T02:15:13;23.60;61.80
41457;DHT22;27197;51.752;5.220;2022-09-14T02:17:47;23.60;62.00
41457;DHT22;27197;51.752;5.220;2022-09-14T02:20:31;23.60;62.00
41457;DHT22;27197;51.752;5.220;2022-09-14T02:22:59;23.70;62.10
41457;DHT22;27197;51.752;5.220;2022-09-14T02:25:31;23.70;62.30
41457;DHT22;27197;51.752;5.220;2022-09-14T02:28:05;23.70;62.30
41457;DHT22;27197;51.752;5.220;2022-09-14T02:30:47;23.70;62.40
41457;DHT22;27197;51.752;5.220;2022-09-14T02:33:26;23.70;62.50
41457;DHT22;27197;51.752;5.220;2022-09-14T02:35:58;23.70;62.50
41457;DHT22;27197;51.752;5.220;2022-09-14T02:44:13;23.70;62.60
41457;DHT22;27197;51.752;5.220;2022-09-14T02:46:58;23.80;62.80
41457;DHT22;27197;51.752;5.220;2022-09-14T02:49:38;23.70;62.70
41457;DHT22;27197;51.752;5.220;2022-09-14T02:55:16;23.80;62.90
41457;DHT22;27197;51.752;5.220;2022-09-14T02:58:04;23.80;62.80
41457;DHT22;27197;51.752;5.220;2022-09-14T03:00:43;23.80;62.80
41457;DHT22;27197;51.752;5.220;2022-09-14T03:03:13;23.80;62.80
41457;DHT22;27197;51.752;5.220;2022-09-14T03:05:44;23.80;62.90
41457;DHT22;27197;51.752;5.220;2022-09-14T03:08:16;23.80;62.80
41457;DHT22;27197;51.752;5.220;2022-09-14T03:10:48;23.80;62.90
41457;DHT22;27197;51.752;5.220;2022-09-14T03:13:21;23.80;62.90
41457;DHT22;27197;51.752;5.220;2022-09-14T03:15:52;23.70;62.80
41457;DHT22;27197;51.752;5.220;2022-09-14T03:18:23;23.70;62.10
41457;DHT22;27197;51.752;5.220;2022-09-14T03:20:53;23.60;61.70
41457;DHT22;27197;51.752;5.220;2022-09-14T03:23:23;23.60;62.10
41457;DHT22;27197;51.752;5.220;2022-09-14T03:25:53;23.50;61.30
41457;DHT22;27197;51.752;5.220;2022-09-14T03:28:23;23.50;61.10
41457;DHT22;27197;51.752;5.220;2022-09-14T03:30:53;23.50;61.40
41457;DHT22;27197;51.752;5.220;2022-09-14T03:33:23;23.50;61.70
41457;DHT22;27197;51.752;5.220;2022-09-14T03:35:53;23.50;62.00
41457;DHT22;27197;51.752;5.220;2022-09-14T03:38:23;23.60;62.20
41457;DHT22;27197;51.752;5.220;2022-09-14T03:40:55;23.60;62.30
41457;DHT22;27197;51.752;5.220;2022-09-14T03:43:29;23.60;62.40
41457;DHT22;27197;51.752;5.220;2022-09-14T03:46:10;23.60;62.40
41457;DHT22;27197;51.752;5.220;2022-09-14T03:48:37;23.60;62.40
41457;DHT22;27197;51.752;5.220;2022-09-14T03:51:10;23.60;62.50
41457;DHT22;27197;51.752;5.220;2022-09-14T03:53:39;23.60;62.50
41457;DHT22;27197;51.752;5.220;2022-09-14T03:56:13;23.60;62.70
41457;DHT22;27197;51.752;5.220;2022-09-14T03:58:47;23.70;62.70
41457;DHT22;27197;51.752;5.220;2022-09-14T04:01:21;23.60;62.70
41457;DHT22;27197;51.752;5.220;2022-09-14T04:03:52;23.70;62.80
41457;DHT22;27197;51.752;5.220;2022-09-14T04:06:22;23.70;62.70
41457;DHT22;27197;51.752;5.220;2022-09-14T04:08:52;23.70;62.80
41457;DHT22;27197;51.752;5.220;2022-09-14T04:11:22;23.70;62.80
41457;DHT22;27197;51.752;5.220;2022-09-14T04:13:52;23.70;62.80
41457;DHT22;27197;51.752;5.220;2022-09-14T04:16:23;23.70;62.90
41457;DHT22;27197;51.752;5.220;2022-09-14T04:18:56;23.70;62.80
41457;DHT22;27197;51.752;5.220;2022-09-14T04:21:25;23.70;62.90
41457;DHT22;27197;51.752;5.220;2022-09-14T04:23:59;23.70;63.00
41457;DHT22;27197;51.752;5.220;2022-09-14T04:26:30;23.70;63.10
41457;DHT22;27197;51.752;5.220;2022-09-14T04:29:00;23.70;63.00
41457;DHT22;27197;51.752;5.220;2022-09-14T04:31:32;23.70;63.00
41457;DHT22;27197;51.752;5.220;2022-09-14T04:34:04;23.70;63.00
41457;DHT22;27197;51.752;5.220;2022-09-14T04:36:38;23.70;63.00
41457;DHT22;27197;51.752;5.220;2022-09-14T04:39:11;23.70;63.00
41457;DHT22;27197;51.752;5.220;2022-09-14T04:41:40;23.70;63.00
41457;DHT22;27197;51.752;5.220;2022-09-14T04:44:13;23.70;63.40
41457;DHT22;27197;51.752;5.220;2022-09-14T04:46:42;23.70;63.10
41457;DHT22;27197;51.752;5.220;2022-09-14T04:49:14;23.70;63.10
41457;DHT22;27197;51.752;5.220;2022-09-14T04:51:45;23.70;63.20
41457;DHT22;27197;51.752;5.220;2022-09-14T04:54:17;23.70;63.20
41457;DHT22;27197;51.752;5.220;2022-09-14T04:56:47;23.70;63.20
41457;DHT22;27197;51.752;5.220;2022-09-14T04:59:19;23.70;63.20
41457;DHT22;27197;51.752;5.220;2022-09-14T05:01:53;23.70;63.20
41457;DHT22;27197;51.752;5.220;2022-09-14T05:04:22;23.70;63.20
41457;DHT22;27197;51.752;5.220;2022-09-14T05:06:52;23.60;63.20
41457;DHT22;27197;51.752;5.220;2022-09-14T05:09:22;23.60;63.40
41457;DHT22;27197;51.752;5.220;2022-09-14T05:11:52;23.70;63.50
41457;DHT22;27197;51.752;5.220;2022-09-14T05:14:22;23.60;63.50
41457;DHT22;27197;51.752;5.220;2022-09-14T05:16:53;23.60;63.50
41457;DHT22;27197;51.752;5.220;2022-09-14T05:19:23;23.60;63.60
41457;DHT22;27197;51.752;5.220;2022-09-14T05:21:53;23.70;63.60
41457;DHT22;27197;51.752;5.220;2022-09-14T05:24:23;23.60;63.60
41457;DHT22;27197;51.752;5.220;2022-09-14T05:26:54;23.60;63.90
41457;DHT22;27197;51.752;5.220;2022-09-14T05:29:29;23.60;64.40
41457;DHT22;27197;51.752;5.220;2022-09-14T05:31:59;23.60;65.10
41457;DHT22;27197;51.752;5.220;2022-09-14T05:34:29;23.70;66.20
41457;DHT22;27197;51.752;5.220;2022-09-14T05:36:59;23.60;67.00
41457;DHT22;27197;51.752;5.220;2022-09-14T05:39:31;23.70;67.60
41457;DHT22;27197;51.752;5.220;2022-09-14T05:42:02;23.70;68.00
41457;DHT22;27197;51.752;5.220;2022-09-14T05:44:32;23.70;68.40
41457;DHT22;27197;51.752;5.220;2022-09-14T05:47:03;23.70;68.60
41457;DHT22;27197;51.752;5.220;2022-09-14T05:49:34;23.70;68.70
41457;DHT22;27197;51.752;5.220;2022-09-14T05:52:07;23.70;68.90
41457;DHT22;27197;51.752;5.220;2022-09-14T05:54:38;23.70;68.90
41457;DHT22;27197;51.752;5.220;2022-09-14T05:57:12;23.70;68.80
41457;DHT22;27197;51.752;5.220;2022-09-14T05:59:41;23.70;68.70
41457;DHT22;27197;51.752;5.220;2022-09-14T06:02:12;23.70;68.60
41457;DHT22;27197;51.752;5.220;2022-09-14T06:04:44;23.70;68.50
41457;DHT22;27197;51.752;5.220;2022-09-14T06:07:16;23.70;68.20
41457;DHT22;27197;51.752;5.220;2022-09-14T06:09:46;23.70;68.10
41457;DHT22;27197;51.752;5.220;2022-09-14T06:12:16;23.70;68.00
41457;DHT22;27197;51.752;5.220;2022-09-14T06:14:46;23.70;67.80
41457;DHT22;27197;51.752;5.220;2022-09-14T06:17:17;23.70;67.60
41457;DHT22;27197;51.752;5.220;2022-09-14T06:19:47;23.70;67.50
41457;DHT22;27197;51.752;5.220;2022-09-14T06:22:17;23.70;67.50
41457;DHT22;27197;51.752;5.220;2022-09-14T06:24:48;23.70;67.30
41457;DHT22;27197;51.752;5.220;2022-09-14T06:27:20;23.70;67.10
41457;DHT22;27197;51.752;5.220;2022-09-14T06:29:50;23.70;66.90
41457;DHT22;27197;51.752;5.220;2022-09-14T06:32:21;23.70;66.50
41457;DHT22;27197;51.752;5.220;2022-09-14T06:34:53;23.70;66.20
41457;DHT22;27197;51.752;5.220;2022-09-14T06:37:27;23.70;66.20
41457;DHT22;27197;51.752;5.220;2022-09-14T06:39:56;23.70;65.80
41457;DHT22;27197;51.752;5.220;2022-09-14T06:42:31;23.70;65.60
41457;DHT22;27197;51.752;5.220;2022-09-14T06:45:03;23.70;65.40
41457;DHT22;27197;51.752;5.220;2022-09-14T06:47:35;23.70;64.90
41457;DHT22;27197;51.752;5.220;2022-09-14T06:50:05;23.70;64.40
41457;DHT22;27197;51.752;5.220;2022-09-14T06:52:41;23.70;64.10
41457;DHT22;27197;51.752;5.220;2022-09-14T06:55:10;23.70;65.10
41457;DHT22;27197;51.752;5.220;2022-09-14T06:57:40;23.70;65.10
41457;DHT22;27197;51.752;5.220;2022-09-14T07:00:12;23.70;65.50
41457;DHT22;27197;51.752;5.220;2022-09-14T07:02:41;23.70;68.40
41457;DHT22;27197;51.752;5.220;2022-09-14T07:05:12;23.70;68.70
41457;DHT22;27197;51.752;5.220;2022-09-14T07:07:42;23.70;69.10
41457;DHT22;27197;51.752;5.220;2022-09-14T07:10:13;23.60;69.30
41457;DHT22;27197;51.752;5.220;2022-09-14T07:12:42;23.60;70.00
41457;DHT22;27197;51.752;5.220;2022-09-14T07:15:13;23.60;70.00
41457;DHT22;27197;51.752;5.220;2022-09-14T07:17:48;23.60;69.30
41457;DHT22;27197;51.752;5.220;2022-09-14T07:20:18;23.60;69.30
41457;DHT22;27197;51.752;5.220;2022-09-14T07:22:49;23.60;69.50
41457;DHT22;27197;51.752;5.220;2022-09-14T07:25:19;23.60;69.50
41457;DHT22;27197;51.752;5.220;2022-09-14T07:27:49;23.60;69.30
41457;DHT22;27197;51.752;5.220;2022-09-14T07:30:19;23.60;69.40
41457;DHT22;27197;51.752;5.220;2022-09-14T07:32:50;23.50;69.30
41457;DHT22;27197;51.752;5.220;2022-09-14T07:35:21;23.50;69.30
41457;DHT22;27197;51.752;5.220;2022-09-14T07:37:52;23.50;69.50
41457;DHT22;27197;51.752;5.220;2022-09-14T07:40:24;23.50;69.50
41457;DHT22;27197;51.752;5.220;2022-09-14T07:42:58;23.50;69.60
41457;DHT22;27197;51.752;5.220;2022-09-14T07:45:27;23.50;69.30
41457;DHT22;27197;51.752;5.220;2022-09-14T07:47:57;23.50;69.40
41457;DHT22;27197;51.752;5.220;2022-09-14T07:50:27;23.50;69.40
41457;DHT22;27197;51.752;5.220;2022-09-14T07:52:57;23.50;69.40
41457;DHT22;27197;51.752;5.220;2022-09-14T07:55:27;23.50;69.50
41457;DHT22;27197;51.752;5.220;2022-09-14T07:57:57;23.50;69.30
41457;DHT22;27197;51.752;5.220;2022-09-14T08:00:29;23.50;69.40
41457;DHT22;27197;51.752;5.220;2022-09-14T08:02:59;23.50;69.30
41457;DHT22;27197;51.752;5.220;2022-09-14T08:05:29;23.50;69.10
41457;DHT22;27197;51.752;5.220;2022-09-14T08:08:02;23.50;69.00
41457;DHT22;27197;51.752;5.220;2022-09-14T08:10:33;23.50;69.40
41457;DHT22;27197;51.752;5.220;2022-09-14T08:13:04;23.50;69.50
41457;DHT22;27197;51.752;5.220;2022-09-14T08:15:34;23.50;69.60
41457;DHT22;27197;51.752;5.220;2022-09-14T08:18:06;23.50;69.40
41457;DHT22;27197;51.752;5.220;2022-09-14T08:20:36;23.50;69.60
41457;DHT22;27197;51.752;5.220;2022-09-14T08:23:06;23.50;69.50
41457;DHT22;27197;51.752;5.220;2022-09-14T08:25:37;23.50;69.50
41457;DHT22;27197;51.752;5.220;2022-09-14T08:28:08;23.50;69.70
41457;DHT22;27197;51.752;5.220;2022-09-14T08:30:38;23.50;69.50
41457;DHT22;27197;51.752;5.220;2022-09-14T08:33:08;23.40;69.50
41457;DHT22;27197;51.752;5.220;2022-09-14T08:35:43;23.50;69.20
41457;DHT22;27197;51.752;5.220;2022-09-14T08:38:13;23.50;69.40
41457;DHT22;27197;51.752;5.220;2022-09-14T08:40:45;23.50;69.60
41457;DHT22;27197;51.752;5.220;2022-09-14T08:43:18;23.50;69.40
41457;DHT22;27197;51.752;5.220;2022-09-14T08:45:54;23.50;69.20
41457;DHT22;27197;51.752;5.220;2022-09-14T08:48:26;23.50;69.50
41457;DHT22;27197;51.752;5.220;2022-09-14T08:50:55;23.50;69.40
41457;DHT22;27197;51.752;5.220;2022-09-14T08:53:26;23.40;69.20
41457;DHT22;27197;51.752;5.220;2022-09-14T08:56:11;23.50;69.10
41457;DHT22;27197;51.752;5.220;2022-09-14T08:58:59;23.40;69.10
41457;DHT22;27197;51.752;5.220;2022-09-14T09:01:57;23.50;69.20
41457;DHT22;27197;51.752;5.220;2022-09-14T09:08:02;23.50;69.00
41457;DHT22;27197;51.752;5.220;2022-09-14T09:09:42;23.40;69.00
41457;DHT22;27197;51.752;5.220;2022-09-14T09:12:27;23.50;69.80
41457;DHT22;27197;51.752;5.220;2022-09-14T09:15:02;23.40;69.10
41457;DHT22;27197;51.752;5.220;2022-09-14T09:17:44;23.40;69.10
41457;DHT22;27197;51.752;5.220;2022-09-14T09:20:18;23.50;69.20
41457;DHT22;27197;51.752;5.220;2022-09-14T09:23:10;23.40;69.10
41457;DHT22;27197;51.752;5.220;2022-09-14T09:25:25;23.40;69.20
41457;DHT22;27197;51.752;5.220;2022-09-14T09:28:08;23.40;68.90
41457;DHT22;27197;51.752;5.220;2022-09-14T09:30:36;23.40;68.60
41457;DHT22;27197;51.752;5.220;2022-09-14T09:33:10;23.40;68.90
41457;DHT22;27197;51.752;5.220;2022-09-14T09:35:42;23.40;69.00
41457;DHT22;27197;51.752;5.220;2022-09-14T09:38:18;23.40;68.90
41457;DHT22;27197;51.752;5.220;2022-09-14T09:41:38;23.40;69.00
41457;DHT22;27197;51.752;5.220;2022-09-14T09:43:27;23.40;68.80
41457;DHT22;27197;51.752;5.220;2022-09-14T09:46:07;23.40;68.80
41457;DHT22;27197;51.752;5.220;2022-09-14T09:48:43;23.50;68.80
41457;DHT22;27197;51.752;5.220;2022-09-14T09:51:26;23.40;68.60
41457;DHT22;27197;51.752;5.220;2022-09-14T09:54:36;23.40;68.90
41457;DHT22;27197;51.752;5.220;2022-09-14T09:56:23;23.50;68.50
41457;DHT22;27197;51.752;5.220;2022-09-14T09:58:55;23.40;68.50
41457;DHT22;27197;51.752;5.220;2022-09-14T10:01:30;23.40;68.50
41457;DHT22;27197;51.752;5.220;2022-09-14T10:04:15;23.40;68.50
41457;DHT22;27197;51.752;5.220;2022-09-14T10:06:51;23.40;68.70
41457;DHT22;27197;51.752;5.220;2022-09-14T10:09:26;23.40;68.70
41457;DHT22;27197;51.752;5.220;2022-09-14T10:12:04;23.40;68.90
41457;DHT22;27197;51.752;5.220;2022-09-14T10:14:36;23.40;68.80
41457;DHT22;27197;51.752;5.220;2022-09-14T10:17:15;23.40;68.70
41457;DHT22;27197;51.752;5.220;2022-09-14T10:19:39;23.40;68.20
41457;DHT22;27197;51.752;5.220;2022-09-14T10:22:27;23.40;68.30
41457;DHT22;27197;51.752;5.220;2022-09-14T10:27:58;23.40;68.60
41457;DHT22;27197;51.752;5.220;2022-09-14T10:30:43;23.40;68.60
41457;DHT22;27197;51.752;5.220;2022-09-14T10:33:15;23.50;68.20
41457;DHT22;27197;51.752;5.220;2022-09-14T10:38:48;23.40;68.50
41457;DHT22;27197;51.752;5.220;2022-09-14T10:50:23;23.40;68.10
41457;DHT22;27197;51.752;5.220;2022-09-14T11:06:52;23.40;68.60
41457;DHT22;27197;51.752;5.220;2022-09-14T11:09:21;23.40;68.00
41457;DHT22;27197;51.752;5.220;2022-09-14T11:17:11;23.40;67.50
41457;DHT22;27197;51.752;5.220;2022-09-14T11:19:59;23.40;67.60
41457;DHT22;27197;51.752;5.220;2022-09-14T11:22:41;23.40;67.70
41457;DHT22;27197;51.752;5.220;2022-09-14T11:25:17;23.40;67.70
41457;DHT22;27197;51.752;5.220;2022-09-14T11:27:56;23.40;67.60
41457;DHT22;27197;51.752;5.220;2022-09-14T11:30:21;23.40;67.70
41457;DHT22;27197;51.752;5.220;2022-09-14T11:32:58;23.40;67.60
41457;DHT22;27197;51.752;5.220;2022-09-14T11:35:46;23.40;67.60
41457;DHT22;27197;51.752;5.220;2022-09-14T11:38:28;23.40;67.80
41457;DHT22;27197;51.752;5.220;2022-09-14T11:41:18;23.40;67.70
41457;DHT22;27197;51.752;5.220;2022-09-14T11:43:53;23.40;67.50
41457;DHT22;27197;51.752;5.220;2022-09-14T11:46:31;23.40;67.60
41457;DHT22;27197;51.752;5.220;2022-09-14T11:51:59;23.40;68.30
41457;DHT22;27197;51.752;5.220;2022-09-14T11:54:29;23.40;67.60
41457;DHT22;27197;51.752;5.220;2022-09-14T11:57:03;23.40;67.60
41457;DHT22;27197;51.752;5.220;2022-09-14T11:59:49;23.40;67.50
41457;DHT22;27197;51.752;5.220;2022-09-14T12:07:58;23.40;67.50
41457;DHT22;27197;51.752;5.220;2022-09-14T12:10:29;23.40;67.30
41457;DHT22;27197;51.752;5.220;2022-09-14T12:13:18;23.40;67.30
41457;DHT22;27197;51.752;5.220;2022-09-14T12:15:58;23.40;67.30
41457;DHT22;27197;51.752;5.220;2022-09-14T12:18:23;23.40;67.10
41457;DHT22;27197;51.752;5.220;2022-09-14T12:23:54;23.10;67.60
41457;DHT22;27197;51.752;5.220;2022-09-14T12:26:30;23.30;67.50
41457;DHT22;27197;51.752;5.220;2022-09-14T12:29:03;23.30;66.70
41457;DHT22;27197;51.752;5.220;2022-09-14T12:34:19;23.40;66.60
41457;DHT22;27197;51.752;5.220;2022-09-14T12:39:22;23.40;66.80
41457;DHT22;27197;51.752;5.220;2022-09-14T12:42:00;23.40;66.90
41457;DHT22;27197;51.752;5.220;2022-09-14T12:44:37;23.40;66.60
41457;DHT22;27197;51.752;5.220;2022-09-14T12:50:12;23.40;66.60
41457;DHT22;27197;51.752;5.220;2022-09-14T12:52:56;23.40;66.50
41457;DHT22;27197;51.752;5.220;2022-09-14T13:01:33;23.40;66.30
41457;DHT22;27197;51.752;5.220;2022-09-14T13:03:53;23.40;66.20
41457;DHT22;27197;51.752;5.220;2022-09-14T13:06:23;23.40;66.20
41457;DHT22;27197;51.752;5.220;2022-09-14T13:08:56;23.40;66.20
41457;DHT22;27197;51.752;5.220;2022-09-14T13:11:36;23.40;66.30
41457;DHT22;27197;51.752;5.220;2022-09-14T13:14:11;23.40;66.30
41457;DHT22;27197;51.752;5.220;2022-09-14T13:16:42;23.40;66.20
41457;DHT22;27197;51.752;5.220;2022-09-14T13:19:28;23.40;66.00
41457;DHT22;27197;51.752;5.220;2022-09-14T13:22:03;23.40;66.00
41457;DHT22;27197;51.752;5.220;2022-09-14T13:27:06;23.40;65.90
41457;DHT22;27197;51.752;5.220;2022-09-14T13:29:36;23.40;66.10
41457;DHT22;27197;51.752;5.220;2022-09-14T13:32:12;23.40;65.90
41457;DHT22;27197;51.752;5.220;2022-09-14T13:34:42;23.40;65.70
41457;DHT22;27197;51.752;5.220;2022-09-14T13:37:15;23.40;65.80
41457;DHT22;27197;51.752;5.220;2022-09-14T13:39:51;23.40;65.80
41457;DHT22;27197;51.752;5.220;2022-09-14T13:42:24;23.40;65.60
41457;DHT22;27197;51.752;5.220;2022-09-14T13:44:57;23.40;65.60
41457;DHT22;27197;51.752;5.220;2022-09-14T13:47:27;23.40;65.60
41457;DHT22;27197;51.752;5.220;2022-09-14T13:49:58;23.40;65.60
41457;DHT22;27197;51.752;5.220;2022-09-14T13:52:33;23.40;65.60
41457;DHT22;27197;51.752;5.220;2022-09-14T13:55:21;23.40;65.50
41457;DHT22;27197;51.752;5.220;2022-09-14T14:00:51;23.40;65.50
41457;DHT22;27197;51.752;5.220;2022-09-14T14:06:25;23.40;65.30
41457;DHT22;27197;51.752;5.220;2022-09-14T14:09:01;23.40;65.90
41457;DHT22;27197;51.752;5.220;2022-09-14T14:11:39;23.40;65.10
41457;DHT22;27197;51.752;5.220;2022-09-14T14:17:21;23.40;65.00
41457;DHT22;27197;51.752;5.220;2022-09-14T14:19:50;23.40;65.00
41457;DHT22;27197;51.752;5.220;2022-09-14T14:22:31;23.40;64.90
41457;DHT22;27197;51.752;5.220;2022-09-14T14:24:56;23.40;64.90
41457;DHT22;27197;51.752;5.220;2022-09-14T14:27:35;23.40;64.60
41457;DHT22;27197;51.752;5.220;2022-09-14T14:30:19;23.40;64.70
41457;DHT22;27197;51.752;5.220;2022-09-14T14:32:54;23.40;64.60
41457;DHT22;27197;51.752;5.220;2022-09-14T14:35:29;23.40;64.60
41457;DHT22;27197;51.752;5.220;2022-09-14T14:37:59;23.40;64.40
41457;DHT22;27197;51.752;5.220;2022-09-14T14:40:29;23.40;64.40
41457;DHT22;27197;51.752;5.220;2022-09-14T14:43:02;23.40;64.30
41457;DHT22;27197;51.752;5.220;2022-09-14T14:45:33;23.40;64.20
41457;DHT22;27197;51.752;5.220;2022-09-14T14:48:04;23.40;64.50
41457;DHT22;27197;51.752;5.220;2022-09-14T14:50:35;23.40;64.80
41457;DHT22;27197;51.752;5.220;2022-09-14T14:53:08;23.40;64.60
41457;DHT22;27197;51.752;5.220;2022-09-14T14:55:37;23.40;64.30
41457;DHT22;27197;51.752;5.220;2022-09-14T14:58:10;23.40;64.40
41457;DHT22;27197;51.752;5.220;2022-09-14T15:00:39;23.40;64.40
41457;DHT22;27197;51.752;5.220;2022-09-14T15:03:13;23.40;64.30
41457;DHT22;27197;51.752;5.220;2022-09-14T15:05:44;23.40;64.20
41457;DHT22;27197;51.752;5.220;2022-09-14T15:08:17;23.40;64.20
41457;DHT22;27197;51.752;5.220;2022-09-14T15:10:54;23.50;64.20
41457;DHT22;27197;51.752;5.220;2022-09-14T15:13:21;23.40;64.10
41457;DHT22;27197;51.752;5.220;2022-09-14T15:15:51;23.40;64.10
41457;DHT22;27197;51.752;5.220;2022-09-14T15:18:21;23.40;64.10
41457;DHT22;27197;51.752;5.220;2022-09-14T15:20:51;23.40;64.00
41457;DHT22;27197;51.752;5.220;2022-09-14T15:23:21;23.40;64.10
41457;DHT22;27197;51.752;5.220;2022-09-14T15:25:52;23.50;64.10
41457;DHT22;27197;51.752;5.220;2022-09-14T15:28:22;23.50;64.10
41457;DHT22;27197;51.752;5.220;2022-09-14T15:30:53;23.50;64.10
41457;DHT22;27197;51.752;5.220;2022-09-14T15:33:23;23.50;64.20
41457;DHT22;27197;51.752;5.220;2022-09-14T15:35:58;23.50;64.30
41457;DHT22;27197;51.752;5.220;2022-09-14T15:38:29;23.50;64.50
41457;DHT22;27197;51.752;5.220;2022-09-14T15:40:59;23.50;64.40
41457;DHT22;27197;51.752;5.220;2022-09-14T15:43:29;23.50;64.50
41457;DHT22;27197;51.752;5.220;2022-09-14T15:46:05;23.50;64.50
41457;DHT22;27197;51.752;5.220;2022-09-14T15:48:34;23.50;64.60
41457;DHT22;27197;51.752;5.220;2022-09-14T15:51:14;23.50;64.60
41457;DHT22;27197;51.752;5.220;2022-09-14T15:53:43;23.50;64.50
41457;DHT22;27197;51.752;5.220;2022-09-14T15:56:16;23.50;64.50
41457;DHT22;27197;51.752;5.220;2022-09-14T15:58:47;23.50;64.60
41457;DHT22;27197;51.752;5.220;2022-09-14T16:01:19;23.50;64.70
41457;DHT22;27197;51.752;5.220;2022-09-14T16:03:48;23.50;64.90
41457;DHT22;27197;51.752;5.220;2022-09-14T16:06:18;23.50;64.90
41457;DHT22;27197;51.752;5.220;2022-09-14T16:08:50;23.50;64.70
41457;DHT22;27197;51.752;5.220;2022-09-14T16:11:27;23.50;64.70
41457;DHT22;27197;51.752;5.220;2022-09-14T16:13:57;23.50;64.50
41457;DHT22;27197;51.752;5.220;2022-09-14T16:16:26;23.50;64.50
41457;DHT22;27197;51.752;5.220;2022-09-14T16:19:02;23.50;64.50
41457;DHT22;27197;51.752;5.220;2022-09-14T16:21:30;23.50;64.50
41457;DHT22;27197;51.752;5.220;2022-09-14T16:24:04;23.50;64.40
41457;DHT22;27197;51.752;5.220;2022-09-14T16:26:38;23.50;64.40
41457;DHT22;27197;51.752;5.220;2022-09-14T16:29:11;23.50;64.30
41457;DHT22;27197;51.752;5.220;2022-09-14T16:31:44;23.50;64.30
41457;DHT22;27197;51.752;5.220;2022-09-14T16:34:20;23.50;64.30
41457;DHT22;27197;51.752;5.220;2022-09-14T16:36:47;23.50;64.40
41457;DHT22;27197;51.752;5.220;2022-09-14T16:39:23;23.50;64.40
41457;DHT22;27197;51.752;5.220;2022-09-14T16:41:54;23.40;64.20
41457;DHT22;27197;51.752;5.220;2022-09-14T16:44:24;23.40;64.60
41457;DHT22;27197;51.752;5.220;2022-09-14T16:46:57;23.40;64.50
41457;DHT22;27197;51.752;5.220;2022-09-14T16:49:29;23.40;63.70
41457;DHT22;27197;51.752;5.220;2022-09-14T16:52:00;23.30;64.30
41457;DHT22;27197;51.752;5.220;2022-09-14T16:54:30;23.10;64.40
41457;DHT22;27197;51.752;5.220;2022-09-14T16:57:00;23.10;65.40
41457;DHT22;27197;51.752;5.220;2022-09-14T16:59:29;23.10;64.80
41457;DHT22;27197;51.752;5.220;2022-09-14T17:01:59;23.20;65.20
41457;DHT22;27197;51.752;5.220;2022-09-14T17:04:31;23.10;65.00
41457;DHT22;27197;51.752;5.220;2022-09-14T17:07:04;23.20;65.60
41457;DHT22;27197;51.752;5.220;2022-09-14T17:09:33;23.30;64.90
41457;DHT22;27197;51.752;5.220;2022-09-14T17:12:05;23.20;65.00
41457;DHT22;27197;51.752;5.220;2022-09-14T17:14:36;23.20;64.70
41457;DHT22;27197;51.752;5.220;2022-09-14T17:17:06;23.10;65.00
41457;DHT22;27197;51.752;5.220;2022-09-14T17:19:38;23.20;65.50
41457;DHT22;27197;51.752;5.220;2022-09-14T17:22:12;23.30;65.20
41457;DHT22;27197;51.752;5.220;2022-09-14T17:24:43;23.40;64.60
41457;DHT22;27197;51.752;5.220;2022-09-14T17:27:13;23.30;64.70
41457;DHT22;27197;51.752;5.220;2022-09-14T17:29:43;23.30;64.40
41457;DHT22;27197;51.752;5.220;2022-09-14T17:32:12;23.30;65.10
41457;DHT22;27197;51.752;5.220;2022-09-14T17:34:43;23.30;64.80
41457;DHT22;27197;51.752;5.220;2022-09-14T17:37:12;23.30;64.90
41457;DHT22;27197;51.752;5.220;2022-09-14T17:39:41;23.40;64.70